createdAt,value
2019-05-11T00:00:34.907Z,80.40
2019-05-11T00:03:04.168Z,80.78
2019-05-11T00:05:33.394Z,80.92
2019-05-11T00:08:02.579Z,81.16
2019-05-11T00:10:32.305Z,81.13
2019-05-11T00:13:04.266Z,80.83
2019-05-11T00:15:33.493Z,80.98
2019-05-11T00:18:15.401Z,80.80
2019-05-11T00:20:44.634Z,80.91
2019-05-11T00:23:14.538Z,80.92
2019-05-11T00:25:43.877Z,81.23
2019-05-11T00:28:13.179Z,81.35
2019-05-11T00:30:42.092Z,81.29
2019-05-11T00:33:25.293Z,81.50
2019-05-11T00:35:54.239Z,81.55
2019-05-11T00:38:23.129Z,81.08
2019-05-11T00:40:52.002Z,80.76
2019-05-11T00:43:21.199Z,80.77
2019-05-11T00:45:50.257Z,80.61
2019-05-11T00:48:19.495Z,80.19
2019-05-11T00:50:48.764Z,80.33
2019-05-11T00:54:17.172Z,80.42
2019-05-11T00:56:46.310Z,80.61
2019-05-11T00:59:21.867Z,81.31
2019-05-11T01:06:05.626Z,81.05
2019-05-11T01:08:32.275Z,81.17
2019-05-11T01:11:35.369Z,81.47
2019-05-11T01:14:04.516Z,81.96
2019-05-11T01:16:34.003Z,81.99
2019-05-11T01:19:28.432Z,80.95
2019-05-11T01:21:57.599Z,80.78
2019-05-11T01:24:26.651Z,80.76
2019-05-11T01:26:55.838Z,81.17
2019-05-11T01:29:25.302Z,80.62
2019-05-11T01:32:08.421Z,80.97
2019-05-11T01:34:34.929Z,81.49
2019-05-11T01:37:04.025Z,81.23
2019-05-11T01:39:33.732Z,80.90
2019-05-11T01:42:03.329Z,81.13
2019-05-11T01:44:32.676Z,81.71
2019-05-11T01:47:01.765Z,81.78
2019-05-11T01:49:31.045Z,81.18
2019-05-11T01:52:00.310Z,80.31
2019-05-11T01:54:29.307Z,80.86
2019-05-11T01:56:58.880Z,80.97
2019-05-11T01:59:27.904Z,81.00
2019-05-11T02:01:57.914Z,81.10
2019-05-11T02:04:27.563Z,81.23
2019-05-11T02:06:56.512Z,81.48
2019-05-11T02:09:25.724Z,81.57
2019-05-11T02:11:54.758Z,81.89
2019-05-11T02:14:23.891Z,82.13
2019-05-11T02:16:53.814Z,81.77
2019-05-11T02:19:23.308Z,81.71
2019-05-11T02:21:52.527Z,81.83
2019-05-11T02:24:21.786Z,81.71
2019-05-11T02:26:51.308Z,82.16
2019-05-11T02:29:20.660Z,81.86
2019-05-11T02:31:49.671Z,81.77
2019-05-11T02:34:18.713Z,81.52
2019-05-11T02:36:48.510Z,81.61
2019-05-11T02:39:25.640Z,80.81
2019-05-11T02:41:56.417Z,80.86
2019-05-11T02:44:49.582Z,80.92
2019-05-11T02:47:26.363Z,81.50
2019-05-11T02:49:57.756Z,80.74
2019-05-11T02:52:28.748Z,80.92
2019-05-11T02:55:00.290Z,81.17
2019-05-11T02:57:29.680Z,81.76
2019-05-11T02:59:58.938Z,81.23
2019-05-11T03:02:28.950Z,81.59
2019-05-11T03:04:58.257Z,81.41
2019-05-11T03:07:27.709Z,81.14
2019-05-11T03:09:56.994Z,81.27
2019-05-11T03:12:26.442Z,81.30
2019-05-11T03:14:55.731Z,81.44
2019-05-11T03:17:29.754Z,81.29
2019-05-11T03:19:59.022Z,81.49
2019-05-11T03:22:28.601Z,81.72
2019-05-11T03:24:57.572Z,81.69
2019-05-11T03:27:27.255Z,81.75
2019-05-11T03:30:00.870Z,81.71
2019-05-11T03:32:27.909Z,82.11
2019-05-11T03:34:57.412Z,81.53
2019-05-11T03:37:26.448Z,81.18
2019-05-11T03:39:55.531Z,81.37
2019-05-11T03:42:24.515Z,81.11
2019-05-11T03:44:54.771Z,81.45
2019-05-11T03:47:24.262Z,81.53
2019-05-11T03:49:53.493Z,81.97
2019-05-11T03:52:23.008Z,82.33
2019-05-11T03:54:52.529Z,82.77
2019-05-11T03:57:21.945Z,82.37
2019-05-11T03:59:50.975Z,82.39
2019-05-11T04:02:19.982Z,82.50
2019-05-11T04:04:48.903Z,82.22
2019-05-11T04:07:17.926Z,82.19
2019-05-11T04:09:46.896Z,82.53
2019-05-11T04:12:33.286Z,82.91
2019-05-11T04:14:48.933Z,82.77
2019-05-11T04:17:18.335Z,82.91
2019-05-11T04:19:47.439Z,82.57
2019-05-11T04:22:16.766Z,82.75
2019-05-11T04:24:46.048Z,82.20
2019-05-11T04:27:19.471Z,82.13
2019-05-11T04:29:46.450Z,82.38
2019-05-11T04:32:15.766Z,82.12
2019-05-11T04:34:44.783Z,82.47
2019-05-11T04:37:13.699Z,83.20
2019-05-11T04:39:42.628Z,82.93
2019-05-11T04:42:12.006Z,82.35
2019-05-11T04:44:41.244Z,82.46
2019-05-11T04:47:10.269Z,82.09
2019-05-11T04:49:39.738Z,82.20
2019-05-11T04:52:08.776Z,82.00
2019-05-11T04:54:37.644Z,82.18
2019-05-11T04:57:07.156Z,81.64
2019-05-11T04:59:36.355Z,81.34
2019-05-11T05:02:05.298Z,81.83
2019-05-11T05:04:34.378Z,81.47
2019-05-11T05:07:05.378Z,81.39
2019-05-11T05:09:42.948Z,81.73
2019-05-11T05:12:13.639Z,81.02
2019-05-11T05:14:39.558Z,80.47
2019-05-11T05:17:08.554Z,80.80
2019-05-11T05:19:37.727Z,80.52
2019-05-11T05:22:06.772Z,80.09
2019-05-11T05:24:36.039Z,79.96
2019-05-11T05:27:05.396Z,80.05
2019-05-11T05:29:34.640Z,80.92
2019-05-11T05:32:04.083Z,80.12
2019-05-11T05:34:33.080Z,80.37
2019-05-11T05:37:02.400Z,80.37
2019-05-11T05:39:31.705Z,80.25
2019-05-11T05:42:00.880Z,80.35
2019-05-11T05:44:29.965Z,80.07
2019-05-11T05:46:59.392Z,79.82
2019-05-11T05:49:28.423Z,80.20
2019-05-11T05:51:58.531Z,80.68
2019-05-11T05:54:27.804Z,80.46
2019-05-11T05:56:57.178Z,80.77
2019-05-11T05:59:26.375Z,80.84
2019-05-11T06:01:55.511Z,80.85
2019-05-11T06:04:25.037Z,81.20
2019-05-11T06:06:53.965Z,80.79
2019-05-11T06:09:23.205Z,80.82
2019-05-11T06:11:52.234Z,80.26
2019-05-11T06:14:21.802Z,80.18
2019-05-11T06:16:51.045Z,79.67
2019-05-11T06:19:20.020Z,79.43
2019-05-11T06:21:49.694Z,79.16
2019-05-11T06:24:19.159Z,78.70
2019-05-11T06:26:48.415Z,76.85
2019-05-11T06:29:21.296Z,75.53
2019-05-11T06:31:48.541Z,74.68
2019-05-11T06:34:18.130Z,74.75
2019-05-11T06:36:47.496Z,72.96
2019-05-11T06:39:16.424Z,71.65
2019-05-11T06:41:45.424Z,71.63
2019-05-11T06:44:14.538Z,70.76
2019-05-11T06:46:44.224Z,70.30
2019-05-11T06:49:13.192Z,68.94
2019-05-11T06:51:44.978Z,68.72
2019-05-11T06:56:43.412Z,65.02
2019-05-11T06:59:12.700Z,65.02
2019-05-11T07:58:58.273Z,66.81
2019-05-11T18:49:17.721Z,66.81
2019-05-11T18:51:52.209Z,66.81
2019-05-11T18:54:22.369Z,59.29
2019-05-11T18:56:51.862Z,59.87
2019-05-11T18:59:21.062Z,60.16
2019-05-11T19:01:50.357Z,60.63
2019-05-11T19:04:19.955Z,60.79
2019-05-11T19:06:49.033Z,61.06
2019-05-11T19:09:18.261Z,60.94
2019-05-11T19:11:48.894Z,61.54
2019-05-11T19:14:18.201Z,60.76
2019-05-11T19:16:49.123Z,61.47
2019-05-11T19:19:18.469Z,61.85
2019-05-11T19:21:48.326Z,62.08
2019-05-11T19:24:19.021Z,62.12
2019-05-11T19:26:51.247Z,62.27
2019-05-11T19:29:22.171Z,62.31
2019-05-11T19:31:51.830Z,62.19
2019-05-11T19:34:21.109Z,62.02
2019-05-11T19:36:50.390Z,62.07
2019-05-11T19:39:19.933Z,62.30
2019-05-11T19:41:49.632Z,62.25
2019-05-11T19:44:18.912Z,62.57
2019-05-11T20:09:08.927Z,62.86
2019-05-11T20:11:38.484Z,62.86
2019-05-11T20:14:08.109Z,62.80
2019-05-11T20:16:37.289Z,62.99
2019-05-11T20:19:08.620Z,63.16
2019-05-11T20:21:38.179Z,63.38
2019-05-11T20:24:08.533Z,63.55
2019-05-11T20:26:37.975Z,63.73
2019-05-11T20:29:30.221Z,63.99
2019-05-11T20:31:59.587Z,64.11
2019-05-11T20:34:28.959Z,64.45
2019-05-11T20:36:58.767Z,64.63
2019-05-11T20:40:37.806Z,64.58
2019-05-11T20:47:28.731Z,64.73
2019-05-11T20:48:38.230Z,64.91
2019-05-11T20:50:43.749Z,65.23
2019-05-11T21:32:59.196Z,65.07
2019-05-11T21:39:18.528Z,65.90
2019-05-11T21:41:53.637Z,65.92
2019-05-11T21:44:23.082Z,66.14
2019-05-11T21:46:52.737Z,66.22
2019-05-11T21:49:21.687Z,66.26
2019-05-11T21:52:03.670Z,66.84
2019-05-11T21:54:21.839Z,66.62
2019-05-11T21:56:51.107Z,66.59
2019-05-11T21:59:20.545Z,67.04
2019-05-11T22:01:49.755Z,67.10
2019-05-11T22:04:19.329Z,67.07
2019-05-11T22:06:48.458Z,67.17
2019-05-11T22:09:18.535Z,67.41
2019-05-11T22:11:48.671Z,67.31
2019-05-11T22:14:17.917Z,67.54
2019-05-11T22:16:48.012Z,67.56
2019-05-11T22:19:17.862Z,67.76
2019-05-11T22:21:49.448Z,67.87
2019-05-11T22:24:18.394Z,67.87
2019-05-11T22:26:47.802Z,68.08
2019-05-11T22:29:18.137Z,68.07
2019-05-11T22:31:48.672Z,67.93
2019-05-11T22:34:18.416Z,68.21
2019-05-11T22:36:48.004Z,68.43
2019-05-11T22:39:20.556Z,68.43
2019-05-11T22:41:48.250Z,68.73
2019-05-11T22:44:18.619Z,68.77
2019-05-11T22:46:48.186Z,69.04
2019-05-11T22:49:17.797Z,68.85
2019-05-11T22:51:50.164Z,69.01
2019-05-11T22:54:44.035Z,68.95
2019-05-11T22:57:32.901Z,68.98
2019-05-11T23:00:12.474Z,69.28
2019-05-11T23:02:41.523Z,68.97
2019-05-11T23:05:10.904Z,69.20
2019-05-11T23:07:41.867Z,69.22
2019-05-11T23:10:11.345Z,69.51
2019-05-11T23:12:42.616Z,69.51
2019-05-11T23:15:14.975Z,69.45
2019-05-11T23:17:44.080Z,69.45
2019-05-11T23:20:13.427Z,69.20
2019-05-11T23:22:56.652Z,70.22
2019-05-11T23:25:19.712Z,69.55
2019-05-11T23:27:49.118Z,70.68
2019-05-11T23:30:20.105Z,70.03
2019-05-11T23:32:50.206Z,70.26
2019-05-11T23:35:19.430Z,70.14
2019-05-11T23:38:12.299Z,70.50
2019-05-11T23:40:41.557Z,70.55
2019-05-11T23:43:10.689Z,70.53
2019-05-11T23:45:39.750Z,70.17
2019-05-11T23:48:08.904Z,70.46
2019-05-11T23:50:38.740Z,70.52
2019-05-11T23:53:10.305Z,70.61
2019-05-11T23:55:39.337Z,70.64
2019-05-11T23:58:08.471Z,70.85
